createdAt,value
2024-03-05T00:00:56.791Z,89.37
2024-03-05T00:05:59.795Z,91.43
2024-03-05T00:11:05.305Z,102.57
2024-03-05T00:16:09.111Z,95.03
2024-03-05T00:21:11.992Z,90.83
2024-03-05T00:26:19.471Z,97.33
2024-03-05T00:31:22.633Z,98.00
2024-03-05T00:36:26.352Z,98.73
2024-03-05T00:41:30.651Z,105.10
2024-03-05T00:46:34.295Z,102.80
2024-03-05T00:51:37.194Z,100.50
2024-03-05T00:56:41.659Z,90.30
2024-03-05T01:01:44.691Z,87.43
2024-03-05T01:06:47.670Z,97.00
2024-03-05T01:11:52.130Z,104.33
2024-03-05T01:16:55.145Z,100.70
2024-03-05T01:21:59.427Z,101.70
2024-03-05T01:27:06.628Z,103.27
2024-03-05T01:32:10.666Z,92.57
2024-03-05T01:37:13.668Z,83.53
2024-03-05T01:42:18.154Z,91.73
2024-03-05T01:47:21.886Z,90.93
2024-03-05T01:52:25.422Z,81.90
2024-03-05T01:57:29.993Z,76.50
2024-03-05T02:02:33.057Z,86.20
2024-03-05T02:07:36.637Z,83.93
2024-03-05T02:12:42.056Z,80.83
2024-03-05T02:17:45.083Z,81.07
2024-03-05T02:22:49.412Z,86.77
2024-03-05T02:27:52.511Z,84.00
2024-03-05T02:32:55.598Z,79.10
2024-03-05T02:37:59.953Z,80.27
2024-03-05T02:43:02.907Z,80.03
2024-03-05T02:48:07.417Z,66.33
2024-03-05T02:53:12.004Z,66.43
2024-03-05T02:58:15.229Z,75.23
2024-03-05T03:03:18.184Z,81.87
2024-03-05T03:08:22.750Z,70.17
2024-03-05T03:13:25.673Z,80.90
2024-03-05T03:18:28.607Z,69.33
2024-03-05T03:23:33.012Z,81.03
2024-03-05T03:28:35.924Z,77.30
2024-03-05T03:33:40.305Z,70.33
2024-03-05T03:38:45.055Z,69.83
2024-03-05T03:43:48.385Z,67.43
2024-03-05T03:48:52.003Z,74.00
2024-03-05T03:53:56.309Z,82.33
2024-03-05T03:58:59.208Z,77.30
2024-03-05T04:04:03.410Z,72.33
2024-03-05T04:09:09.447Z,72.73
2024-03-05T04:14:12.619Z,68.80
2024-03-05T04:19:15.562Z,68.43
2024-03-05T04:24:21.595Z,69.17
2024-03-05T04:29:31.231Z,70.07
2024-03-05T04:34:36.528Z,68.50
2024-03-05T04:39:43.968Z,68.93
2024-03-05T04:44:47.733Z,69.43
2024-03-05T04:49:50.698Z,85.60
2024-03-05T04:54:55.374Z,70.63
2024-03-05T04:59:59.196Z,66.60
2024-03-05T05:05:04.227Z,69.83
2024-03-05T05:10:10.534Z,67.50
2024-03-05T05:15:14.003Z,69.17
2024-03-05T05:20:19.435Z,64.50
2024-03-05T05:25:24.937Z,71.37
2024-03-05T05:30:27.913Z,72.17
2024-03-05T05:35:30.839Z,65.80
2024-03-05T05:40:35.179Z,63.17
2024-03-05T05:45:38.906Z,64.60
2024-03-05T05:50:43.477Z,67.63
2024-03-05T05:55:47.939Z,60.00
2024-03-05T06:00:51.856Z,63.90
2024-03-05T06:05:54.809Z,63.57
2024-03-05T06:10:59.275Z,59.80
2024-03-05T06:16:02.297Z,63.77
2024-03-05T06:21:06.581Z,63.23
2024-03-05T06:26:11.165Z,61.47
2024-03-05T06:31:14.052Z,59.30
2024-03-05T06:36:17.001Z,55.87
2024-03-05T06:41:21.322Z,57.17
2024-03-05T06:46:30.685Z,64.50
2024-03-05T06:51:42.883Z,59.60
2024-03-05T06:56:47.223Z,63.80
2024-03-05T07:01:50.206Z,63.13
2024-03-05T07:06:56.025Z,58.53
2024-03-05T07:12:00.792Z,51.87
2024-03-05T07:17:03.842Z,65.83
2024-03-05T07:22:08.202Z,59.23
2024-03-05T07:27:13.183Z,60.90
2024-03-05T07:32:16.952Z,54.47
2024-03-05T07:37:20.124Z,66.63
2024-03-05T07:42:24.378Z,54.27
2024-03-05T07:47:27.292Z,53.77
2024-03-05T07:52:30.261Z,52.00
2024-03-05T07:57:35.793Z,55.43
2024-03-05T08:02:39.749Z,52.17
2024-03-05T08:07:42.681Z,47.57
2024-03-05T08:12:48.450Z,48.73
2024-03-05T08:17:51.557Z,48.90
2024-03-05T08:22:55.238Z,53.50
2024-03-05T08:28:00.243Z,46.47
2024-03-05T08:33:04.754Z,46.90
2024-03-05T08:38:10.383Z,42.10
2024-03-05T08:43:15.427Z,42.47
2024-03-05T08:48:18.867Z,44.30
2024-03-05T08:53:21.880Z,43.20
2024-03-05T08:58:26.200Z,46.67
2024-03-05T09:03:29.111Z,42.77
2024-03-05T09:08:32.180Z,44.33
2024-03-05T09:13:36.496Z,47.10
2024-03-05T09:18:39.418Z,42.10
2024-03-05T09:23:42.325Z,37.30
2024-03-05T09:28:46.688Z,53.47
2024-03-05T09:33:49.610Z,51.67
2024-03-05T09:38:52.523Z,41.80
2024-03-05T09:43:58.136Z,49.63
2024-03-05T09:49:10.902Z,46.57
2024-03-05T09:54:17.969Z,44.97
2024-03-05T09:59:22.494Z,44.10
2024-03-05T10:04:27.945Z,42.90
2024-03-05T10:09:31.580Z,39.27
2024-03-05T10:14:35.951Z,40.27
2024-03-05T10:19:44.594Z,44.90
2024-03-05T10:24:49.345Z,42.97
2024-03-05T10:29:53.772Z,43.17
2024-03-05T10:34:57.376Z,44.10
2024-03-05T10:40:00.398Z,39.97
2024-03-05T10:45:05.027Z,38.63
2024-03-05T10:50:13.648Z,47.10
2024-03-05T10:55:22.498Z,40.03
2024-03-05T11:00:27.634Z,45.30
2024-03-05T11:05:32.829Z,47.03
2024-03-05T11:10:36.610Z,42.27
2024-03-05T11:15:41.254Z,47.37
2024-03-05T11:20:44.358Z,36.93
2024-03-05T11:25:48.654Z,37.63
2024-03-05T11:31:10.616Z,38.40
2024-03-05T11:36:23.150Z,40.60
2024-03-05T11:41:26.326Z,41.43
2024-03-05T11:46:54.470Z,39.93
2024-03-05T11:52:00.528Z,43.53
2024-03-05T11:57:05.259Z,43.00
2024-03-05T12:02:12.717Z,39.80
2024-03-05T12:07:15.796Z,38.13
2024-03-05T12:12:22.826Z,38.00
2024-03-05T12:17:27.494Z,42.90
2024-03-05T12:22:30.602Z,36.30
2024-03-05T12:27:35.456Z,35.33
2024-03-05T12:32:43.527Z,32.83
2024-03-05T12:37:48.616Z,38.43
2024-03-05T12:42:53.692Z,35.13
2024-03-05T12:48:00.686Z,36.63
2024-03-05T12:53:07.179Z,37.67
2024-03-05T12:58:12.490Z,38.73
2024-03-05T13:03:17.780Z,34.60
2024-03-05T13:08:20.848Z,35.80
2024-03-05T13:13:23.822Z,35.30
2024-03-05T13:18:28.093Z,34.63
2024-03-05T13:23:31.005Z,34.10
2024-03-05T13:28:33.953Z,35.73
2024-03-05T13:33:38.223Z,38.40
2024-03-05T13:38:41.210Z,32.97
2024-03-05T13:43:44.138Z,34.00
2024-03-05T13:48:48.467Z,33.70
2024-03-05T13:53:51.740Z,45.57
2024-03-05T13:58:54.766Z,42.20
2024-03-05T14:03:59.649Z,40.43
2024-03-05T14:09:02.584Z,37.67
2024-03-05T14:14:06.004Z,35.63
2024-03-05T14:19:10.373Z,38.47
2024-03-05T14:24:14.173Z,40.83
2024-03-05T14:29:17.187Z,34.67
2024-03-05T14:34:22.550Z,41.07
2024-03-05T14:39:25.501Z,35.87
2024-03-05T14:44:28.382Z,37.17
2024-03-05T14:49:32.787Z,37.43
2024-03-05T14:54:35.785Z,40.30
2024-03-05T14:59:38.697Z,34.53
2024-03-05T15:04:43.423Z,36.10
2024-03-05T15:09:46.561Z,44.13
2024-03-05T15:14:50.170Z,36.17
2024-03-05T15:19:54.524Z,33.07
2024-03-05T15:24:57.624Z,43.60
2024-03-05T15:30:00.554Z,38.13
2024-03-05T15:35:05.704Z,37.93
2024-03-05T15:40:16.401Z,40.57
2024-03-05T15:45:20.394Z,37.30
2024-03-05T15:50:26.565Z,38.37
2024-03-05T15:55:30.427Z,42.67
2024-03-05T16:00:37.262Z,43.33
2024-03-05T16:05:52.459Z,43.27
2024-03-05T16:11:03.681Z,46.47
2024-03-05T16:16:08.704Z,44.33
2024-03-05T16:21:14.130Z,49.93
2024-03-05T16:26:17.177Z,44.73
2024-03-05T16:31:22.973Z,62.47
2024-03-05T16:36:27.412Z,61.20
2024-03-05T16:41:30.307Z,56.73
2024-03-05T16:46:34.952Z,49.80
2024-03-05T16:51:41.122Z,47.57
2024-03-05T16:56:45.115Z,47.93
2024-03-05T17:01:48.096Z,48.13
2024-03-05T17:06:52.421Z,48.53
2024-03-05T17:11:55.301Z,48.73
2024-03-05T17:16:58.598Z,47.17
2024-03-05T17:22:04.641Z,43.67
2024-03-05T17:27:07.815Z,48.63
2024-03-05T17:32:10.960Z,50.67
2024-03-05T17:37:15.671Z,45.80
2024-03-05T17:42:18.642Z,46.07
2024-03-05T17:47:21.624Z,51.30
2024-03-05T17:52:28.247Z,42.83
2024-03-05T17:57:32.976Z,50.47
2024-03-05T18:02:36.535Z,48.33
2024-03-05T18:07:41.522Z,60.83
2024-03-05T18:12:44.993Z,49.97
2024-03-05T18:17:49.838Z,54.67
2024-03-05T18:22:54.386Z,55.20
2024-03-05T18:27:57.296Z,52.70
2024-03-05T18:33:01.326Z,51.73
2024-03-05T18:43:12.596Z,50.57
2024-03-05T18:48:16.406Z,59.27
2024-03-05T18:53:26.031Z,43.93
2024-03-05T18:58:34.849Z,54.40
2024-03-05T19:03:37.756Z,47.63
2024-03-05T19:08:42.029Z,46.87
2024-03-05T19:13:45.802Z,66.43
2024-03-05T19:18:48.755Z,58.70
2024-03-05T19:23:52.993Z,53.40
2024-03-05T19:28:55.883Z,53.50
2024-03-05T19:33:59.497Z,53.10
2024-03-05T19:39:05.219Z,51.07
2024-03-05T19:44:08.978Z,46.73
2024-03-05T19:49:11.926Z,46.73
2024-03-05T19:54:16.534Z,52.80
2024-03-05T19:59:19.465Z,51.37
2024-03-05T20:04:22.358Z,47.13
2024-03-05T20:09:26.615Z,48.67
2024-03-05T20:14:29.721Z,46.20
2024-03-05T20:19:35.432Z,43.17
2024-03-05T20:24:39.791Z,44.17
2024-03-05T20:29:42.689Z,41.90
2024-03-05T20:34:49.442Z,46.77
2024-03-05T20:39:57.249Z,45.63
2024-03-05T20:45:00.238Z,51.30
2024-03-05T20:50:03.323Z,54.03
2024-03-05T20:55:09.859Z,48.10
2024-03-05T21:00:16.385Z,45.63
2024-03-05T21:05:20.227Z,49.00
2024-03-05T21:10:24.878Z,48.47
2024-03-05T21:15:27.899Z,51.50
2024-03-05T21:20:31.330Z,56.23
2024-03-05T21:25:44.618Z,54.50
2024-03-05T21:31:00.786Z,52.00
2024-03-05T21:36:03.838Z,59.80
2024-03-05T21:41:10.091Z,48.57
2024-03-05T21:46:13.980Z,49.13
2024-03-05T21:51:17.032Z,51.73
2024-03-05T21:56:21.956Z,42.67
2024-03-05T22:01:25.100Z,35.87
2024-03-05T22:06:28.008Z,37.40
2024-03-05T22:11:32.299Z,39.50
2024-03-05T22:16:35.212Z,38.10
2024-03-05T22:21:39.064Z,35.17
2024-03-05T22:26:43.422Z,36.40
2024-03-05T22:31:46.383Z,33.03
2024-03-05T22:36:49.323Z,35.80
2024-03-05T22:41:53.935Z,36.43
2024-03-05T22:46:56.917Z,33.37
2024-03-05T22:51:59.825Z,33.90
2024-03-05T22:57:05.581Z,40.80
2024-03-05T23:02:08.543Z,39.20
2024-03-05T23:07:11.521Z,36.17
2024-03-05T23:12:16.509Z,36.60
2024-03-05T23:17:19.570Z,32.63
2024-03-05T23:22:23.244Z,38.37
2024-03-05T23:27:27.605Z,35.90
2024-03-05T23:32:31.286Z,31.90
2024-03-05T23:37:35.201Z,29.80
2024-03-05T23:42:40.096Z,31.20
2024-03-05T23:47:43.110Z,30.67
2024-03-05T23:52:46.116Z,32.00
2024-03-05T23:57:50.465Z,30.87
